createdAt,value
2018-04-04T00:00:26.601Z,99.90
2018-04-04T00:02:53.908Z,99.90
2018-04-04T00:05:20.235Z,99.90
2018-04-04T00:07:46.415Z,99.90
2018-04-04T00:10:12.692Z,99.90
2018-04-04T00:12:38.870Z,99.90
2018-04-04T00:15:05.490Z,99.90
2018-04-04T00:17:31.698Z,99.90
2018-04-04T00:19:57.931Z,99.90
2018-04-04T00:22:24.866Z,99.90
2018-04-04T00:24:51.897Z,99.90
2018-04-04T00:27:18.119Z,99.90
2018-04-04T00:29:44.326Z,99.90
2018-04-04T00:32:10.609Z,99.90
2018-04-04T00:34:37.606Z,99.90
2018-04-04T00:37:03.874Z,99.90
2018-04-04T00:39:30.125Z,99.90
2018-04-04T00:41:57.119Z,99.90
2018-04-04T00:44:23.578Z,99.90
2018-04-04T00:46:49.869Z,99.90
2018-04-04T00:49:16.225Z,99.90
2018-04-04T00:51:42.432Z,99.90
2018-04-04T00:54:08.702Z,99.90
2018-04-04T00:56:35.781Z,99.90
2018-04-04T00:59:01.963Z,99.90
2018-04-04T01:01:29.708Z,99.90
2018-04-04T01:03:57.447Z,99.90
2018-04-04T01:06:23.939Z,99.90
2018-04-04T01:08:50.967Z,99.90
2018-04-04T01:11:17.970Z,99.90
2018-04-04T01:13:44.136Z,99.90
2018-04-04T01:16:10.414Z,99.90
2018-04-04T01:18:36.663Z,99.90
2018-04-04T01:21:02.909Z,99.90
2018-04-04T01:23:29.133Z,99.90
2018-04-04T01:25:55.465Z,99.90
2018-04-04T01:28:21.654Z,99.90
2018-04-04T01:30:47.938Z,99.90
2018-04-04T01:33:14.303Z,99.90
2018-04-04T01:35:40.571Z,99.90
2018-04-04T01:38:06.913Z,99.90
2018-04-04T01:40:34.798Z,99.90
2018-04-04T01:43:01.036Z,99.90
2018-04-04T01:45:28.018Z,99.90
2018-04-04T01:47:54.276Z,99.90
2018-04-04T01:50:20.463Z,99.90
2018-04-04T01:52:46.788Z,99.90
2018-04-04T01:55:12.988Z,99.90
2018-04-04T01:57:39.936Z,99.90
2018-04-04T02:00:07.092Z,99.90
2018-04-04T02:02:34.054Z,99.90
2018-04-04T02:05:00.425Z,99.90
2018-04-04T02:07:26.704Z,99.90
2018-04-04T02:09:53.124Z,99.90
2018-04-04T02:12:20.274Z,99.90
2018-04-04T02:14:47.328Z,99.90
2018-04-04T02:17:13.562Z,99.90
2018-04-04T02:19:39.839Z,99.90
2018-04-04T02:22:06.748Z,99.90
2018-04-04T02:24:32.917Z,99.90
2018-04-04T02:26:59.147Z,99.90
2018-04-04T02:29:25.710Z,99.90
2018-04-04T02:31:52.048Z,99.90
2018-04-04T02:34:18.288Z,99.90
2018-04-04T02:36:44.645Z,99.90
2018-04-04T02:39:10.856Z,99.90
2018-04-04T02:41:37.217Z,99.90
2018-04-04T02:44:05.020Z,99.90
2018-04-04T02:46:31.247Z,99.90
2018-04-04T02:48:57.623Z,99.90
2018-04-04T02:51:24.525Z,99.90
2018-04-04T02:53:50.898Z,99.90
2018-04-04T02:56:17.133Z,99.90
2018-04-04T02:58:43.373Z,99.90
2018-04-04T03:01:09.679Z,99.90
2018-04-04T03:03:35.917Z,99.90
2018-04-04T03:06:02.919Z,99.90
2018-04-04T03:08:29.178Z,99.90
2018-04-04T03:10:55.443Z,99.90
2018-04-04T03:13:22.556Z,99.90
2018-04-04T03:15:48.787Z,99.90
2018-04-04T03:18:15.702Z,99.90
2018-04-04T03:20:41.967Z,99.90
2018-04-04T03:23:08.206Z,99.90
2018-04-04T03:25:34.516Z,99.90
2018-04-04T03:28:00.772Z,99.90
2018-04-04T03:30:27.769Z,99.90
2018-04-04T03:32:54.157Z,99.90
2018-04-04T03:35:21.079Z,99.90
2018-04-04T03:37:47.394Z,99.90
2018-04-04T03:40:14.382Z,99.90
2018-04-04T03:42:40.636Z,99.90
2018-04-04T03:45:06.888Z,99.90
2018-04-04T03:47:33.210Z,99.90
2018-04-04T03:49:59.546Z,99.90
2018-04-04T03:52:26.500Z,99.90
2018-04-04T03:54:53.482Z,99.90
2018-04-04T03:57:20.424Z,99.90
2018-04-04T03:59:46.742Z,99.90
2018-04-04T04:02:13.777Z,99.90
2018-04-04T04:04:40.054Z,99.90
2018-04-04T04:07:06.240Z,99.90
2018-04-04T04:09:33.185Z,99.90
2018-04-04T04:12:00.247Z,99.90
2018-04-04T04:14:26.444Z,99.90
2018-04-04T04:16:52.762Z,99.90
2018-04-04T04:19:18.979Z,99.90
2018-04-04T04:21:45.190Z,99.90
2018-04-04T04:24:11.387Z,99.90
2018-04-04T04:26:37.655Z,99.90
2018-04-04T04:29:03.881Z,99.90
2018-04-04T04:31:30.214Z,99.90
2018-04-04T04:33:56.453Z,99.90
2018-04-04T04:36:22.673Z,99.90
2018-04-04T04:38:48.930Z,99.90
2018-04-04T04:41:15.862Z,99.90
2018-04-04T04:43:42.110Z,99.90
2018-04-04T04:46:09.147Z,99.90
2018-04-04T04:48:36.147Z,99.90
2018-04-04T04:51:02.337Z,99.90
2018-04-04T04:53:28.678Z,99.90
2018-04-04T04:55:54.877Z,99.90
2018-04-04T04:58:22.093Z,99.90
2018-04-04T05:00:48.560Z,99.90
2018-04-04T05:03:15.535Z,99.90
2018-04-04T05:05:41.850Z,99.90
2018-04-04T05:08:08.080Z,99.90
2018-04-04T05:10:34.477Z,99.90
2018-04-04T05:13:00.742Z,99.90
2018-04-04T05:15:27.008Z,99.90
2018-04-04T05:17:53.150Z,99.90
2018-04-04T05:20:20.275Z,99.90
2018-04-04T05:22:46.675Z,99.90
2018-04-04T05:25:12.920Z,99.90
2018-04-04T05:27:39.074Z,99.90
2018-04-04T05:30:05.307Z,99.90
2018-04-04T05:32:32.346Z,99.90
2018-04-04T05:34:58.671Z,99.90
2018-04-04T05:37:24.874Z,99.90
2018-04-04T05:39:51.175Z,99.90
2018-04-04T05:42:17.714Z,99.90
2018-04-04T05:44:43.983Z,99.90
2018-04-04T05:47:10.275Z,99.90
2018-04-04T05:49:37.600Z,99.90
2018-04-04T05:52:04.668Z,99.90
2018-04-04T05:54:30.831Z,99.90
2018-04-04T05:56:57.164Z,99.90
2018-04-04T05:59:23.408Z,99.90
2018-04-04T06:01:50.464Z,99.90
2018-04-04T06:04:16.917Z,99.90
2018-04-04T06:06:43.307Z,99.90
2018-04-04T06:09:10.672Z,99.90
2018-04-04T06:11:36.897Z,99.90
2018-04-04T06:14:03.860Z,99.90
2018-04-04T06:16:30.813Z,99.90
2018-04-04T06:18:57.818Z,99.90
2018-04-04T06:21:24.004Z,99.90
2018-04-04T06:23:50.208Z,99.90
2018-04-04T06:26:17.132Z,99.90
2018-04-04T06:28:43.389Z,99.90
2018-04-04T06:31:09.774Z,99.90
2018-04-04T06:33:36.064Z,99.90
2018-04-04T06:36:02.401Z,99.90
2018-04-04T06:38:28.763Z,99.90
2018-04-04T06:40:55.006Z,99.90
2018-04-04T06:43:21.262Z,99.90
2018-04-04T06:45:47.600Z,99.90
2018-04-04T06:48:13.903Z,99.90
2018-04-04T06:50:40.094Z,99.90
2018-04-04T06:53:06.323Z,99.90
2018-04-04T06:55:32.601Z,99.90
2018-04-04T06:57:59.610Z,99.90
2018-04-04T07:00:26.083Z,99.90
2018-04-04T07:02:52.388Z,99.90
2018-04-04T07:05:18.837Z,99.90
2018-04-04T07:07:45.803Z,99.90
2018-04-04T07:10:12.727Z,99.90
2018-04-04T07:12:39.844Z,99.90
2018-04-04T07:15:07.547Z,99.90
2018-04-04T07:17:33.766Z,99.90
2018-04-04T07:20:00.864Z,99.90
2018-04-04T07:22:27.057Z,99.90
2018-04-04T07:24:53.212Z,99.90
2018-04-04T07:27:19.536Z,99.90
2018-04-04T07:29:45.940Z,99.90
2018-04-04T07:32:12.298Z,99.90
2018-04-04T07:34:38.546Z,99.90
2018-04-04T07:37:04.763Z,99.90
2018-04-04T07:39:31.205Z,99.90
2018-04-04T07:41:57.417Z,99.90
2018-04-04T07:44:23.591Z,98.30
2018-04-04T07:46:50.052Z,99.30
2018-04-04T07:49:16.366Z,99.10
2018-04-04T07:51:42.741Z,98.40
2018-04-04T07:54:09.093Z,98.20
2018-04-04T07:56:36.018Z,97.10
2018-04-04T07:59:02.281Z,99.00
2018-04-04T08:01:29.288Z,96.10
2018-04-04T08:03:55.632Z,96.10
2018-04-04T08:06:22.051Z,96.40
2018-04-04T08:08:48.425Z,95.70
2018-04-04T08:11:14.751Z,94.40
2018-04-04T08:13:41.794Z,94.40
2018-04-04T08:16:08.828Z,94.60
2018-04-04T08:18:35.077Z,94.50
2018-04-04T08:21:02.176Z,93.70
2018-04-04T08:23:28.542Z,93.70
2018-04-04T08:25:55.456Z,93.10
2018-04-04T08:28:21.783Z,93.10
2018-04-04T08:30:47.941Z,93.30
2018-04-04T08:33:14.860Z,92.90
2018-04-04T08:35:42.662Z,91.90
2018-04-04T08:38:08.973Z,91.90
2018-04-04T08:40:36.040Z,89.20
2018-04-04T08:43:02.253Z,89.10
2018-04-04T08:45:29.302Z,87.20
2018-04-04T08:47:56.323Z,90.90
2018-04-04T08:50:23.409Z,91.20
2018-04-04T08:52:49.731Z,91.30
2018-04-04T08:55:16.740Z,90.60
2018-04-04T08:57:42.986Z,90.50
2018-04-04T09:00:09.173Z,89.10
2018-04-04T09:02:35.465Z,89.70
2018-04-04T09:05:01.906Z,86.60
2018-04-04T09:07:28.224Z,90.00
2018-04-04T09:09:54.449Z,90.00
2018-04-04T09:12:21.395Z,87.90
2018-04-04T09:14:47.824Z,88.00
2018-04-04T09:17:14.086Z,89.00
2018-04-04T09:19:40.380Z,90.00
2018-04-04T09:22:06.601Z,90.70
2018-04-04T09:24:33.636Z,89.20
2018-04-04T09:27:00.866Z,88.70
2018-04-04T09:29:27.247Z,88.70
2018-04-04T09:31:53.474Z,89.50
2018-04-04T09:34:19.910Z,86.10
2018-04-04T09:36:46.243Z,84.80
2018-04-04T09:39:12.487Z,84.70
2018-04-04T09:41:38.713Z,84.20
2018-04-04T09:44:05.095Z,86.70
2018-04-04T09:46:32.112Z,86.70
2018-04-04T09:48:58.402Z,86.60
2018-04-04T09:51:24.724Z,88.50
2018-04-04T09:53:50.944Z,81.90
2018-04-04T09:56:18.658Z,85.40
2018-04-04T09:58:45.028Z,85.70
2018-04-04T10:01:12.116Z,79.60
2018-04-04T10:03:38.330Z,79.60
2018-04-04T10:06:04.636Z,81.80
2018-04-04T10:08:31.681Z,85.10
2018-04-04T10:10:58.729Z,82.90
2018-04-04T10:13:25.016Z,82.90
2018-04-04T10:15:51.267Z,82.90
2018-04-04T10:18:17.620Z,80.50
2018-04-04T10:20:43.933Z,83.20
2018-04-04T10:23:11.484Z,80.30
2018-04-04T10:25:37.639Z,80.40
2018-04-04T10:28:03.889Z,81.00
2018-04-04T10:30:30.241Z,79.70
2018-04-04T10:32:56.527Z,77.90
2018-04-04T10:35:22.812Z,76.10
2018-04-04T10:37:49.002Z,75.20
2018-04-04T10:40:15.327Z,76.30
2018-04-04T10:42:41.582Z,69.50
2018-04-04T10:45:07.872Z,75.30
2018-04-04T10:47:34.202Z,71.90
2018-04-04T10:50:00.408Z,71.70
2018-04-04T10:52:27.379Z,77.10
2018-04-04T10:54:53.593Z,77.00
2018-04-04T10:57:20.076Z,76.70
2018-04-04T10:59:47.905Z,78.80
2018-04-04T11:02:14.181Z,78.80
2018-04-04T11:04:40.375Z,80.40
2018-04-04T11:07:06.645Z,74.20
2018-04-04T11:09:32.893Z,72.90
2018-04-04T11:11:59.838Z,78.20
2018-04-04T11:14:26.942Z,80.00
2018-04-04T11:16:53.173Z,79.90
2018-04-04T11:19:19.502Z,78.10
2018-04-04T11:21:45.764Z,75.60
2018-04-04T11:24:12.770Z,78.60
2018-04-04T11:26:39.009Z,78.60
2018-04-04T11:29:05.281Z,76.40
2018-04-04T11:31:31.522Z,78.90
2018-04-04T11:33:58.919Z,77.50
2018-04-04T11:36:25.223Z,79.80
2018-04-04T11:38:51.577Z,81.10
2018-04-04T11:41:17.761Z,83.10
2018-04-04T11:43:44.087Z,79.70
2018-04-04T11:46:11.156Z,85.10
2018-04-04T11:48:37.421Z,79.50
2018-04-04T11:51:03.696Z,73.10
2018-04-04T11:53:29.930Z,72.10
2018-04-04T11:55:56.145Z,72.40
2018-04-04T11:58:22.437Z,79.30
2018-04-04T12:00:48.637Z,75.10
2018-04-04T12:03:14.983Z,73.60
2018-04-04T12:05:41.314Z,71.90
2018-04-04T12:08:07.606Z,70.50
2018-04-04T12:10:33.845Z,76.00
2018-04-04T12:13:00.036Z,68.70
2018-04-04T12:15:27.051Z,66.00
2018-04-04T12:17:53.274Z,66.10
2018-04-04T12:20:19.496Z,67.00
2018-04-04T12:22:45.796Z,67.90
2018-04-04T12:25:12.087Z,66.30
2018-04-04T12:27:39.048Z,63.40
2018-04-04T12:30:05.382Z,63.40
2018-04-04T12:32:31.584Z,65.00
2018-04-04T12:34:58.507Z,63.70
2018-04-04T12:37:24.779Z,63.70
2018-04-04T12:39:50.939Z,61.60
2018-04-04T12:42:17.269Z,59.70
2018-04-04T12:44:43.725Z,63.60
2018-04-04T12:47:09.927Z,62.60
2018-04-04T12:49:36.521Z,60.80
2018-04-04T12:52:03.561Z,60.00
2018-04-04T12:54:30.519Z,58.40
2018-04-04T12:56:56.901Z,58.40
2018-04-04T12:59:23.119Z,59.60
2018-04-04T13:01:49.359Z,58.00
2018-04-04T13:04:15.617Z,57.40
2018-04-04T13:06:42.606Z,58.40
2018-04-04T13:09:21.124Z,58.30
2018-04-04T13:11:47.470Z,56.70
2018-04-04T13:14:13.703Z,55.40
2018-04-04T13:16:47.998Z,57.30
2018-04-04T13:19:14.238Z,55.70
2018-04-04T13:21:40.412Z,54.30
2018-04-04T13:24:06.719Z,53.60
2018-04-04T13:26:33.082Z,51.80
2018-04-04T13:28:59.338Z,50.90
2018-04-04T13:31:25.791Z,50.30
2018-04-04T13:33:52.014Z,52.00
2018-04-04T13:36:18.432Z,50.90
2018-04-04T13:38:44.705Z,52.60
2018-04-04T13:41:11.691Z,48.70
2018-04-04T13:43:37.870Z,48.60
2018-04-04T13:46:04.114Z,51.00
2018-04-04T13:48:31.190Z,53.50
2018-04-04T13:50:57.557Z,53.50
2018-04-04T13:53:23.866Z,51.20
2018-04-04T13:55:50.231Z,49.60
2018-04-04T13:58:16.586Z,50.80
2018-04-04T14:00:43.631Z,51.40
2018-04-04T14:03:10.561Z,51.40
2018-04-04T14:05:36.804Z,51.30
2018-04-04T14:08:03.875Z,49.80
2018-04-04T14:10:30.248Z,49.70
2018-04-04T14:12:56.462Z,49.50
2018-04-04T14:15:22.796Z,50.10
2018-04-04T14:17:48.980Z,50.00
2018-04-04T14:20:15.230Z,51.20
2018-04-04T14:22:41.474Z,51.40
2018-04-04T14:25:07.648Z,48.90
2018-04-04T14:27:34.960Z,51.10
2018-04-04T14:30:01.297Z,51.10
2018-04-04T14:32:27.531Z,50.90
2018-04-04T14:34:53.706Z,51.10
2018-04-04T14:37:20.014Z,49.70
2018-04-04T14:39:46.977Z,51.00
2018-04-04T14:42:13.211Z,51.00
2018-04-04T14:44:39.463Z,51.70
2018-04-04T14:47:05.679Z,50.00
2018-04-04T14:49:32.038Z,52.20
2018-04-04T14:51:58.199Z,50.00
2018-04-04T14:54:24.475Z,50.10
2018-04-04T14:56:50.684Z,51.20
2018-04-04T14:59:16.901Z,51.30
2018-04-04T15:04:36.090Z,52.00
2018-04-04T15:07:02.791Z,53.30
2018-04-04T15:09:29.869Z,53.30
2018-04-04T15:11:56.096Z,53.20
2018-04-04T15:14:22.355Z,52.50
2018-04-04T15:16:48.552Z,52.90
2018-04-04T15:19:14.898Z,53.60
2018-04-04T15:21:41.109Z,52.50
2018-04-04T15:24:07.443Z,53.20
2018-04-04T15:26:33.942Z,53.20
2018-04-04T15:29:00.166Z,53.00
2018-04-04T15:31:26.362Z,51.90
2018-04-04T15:33:52.651Z,53.30
2018-04-04T15:36:18.903Z,53.30
2018-04-04T15:38:45.148Z,53.30
2018-04-04T15:41:11.442Z,52.90
2018-04-04T15:43:37.698Z,54.20
2018-04-04T15:46:03.897Z,53.30
2018-04-04T15:48:30.317Z,53.10
2018-04-04T15:50:57.376Z,54.20
2018-04-04T15:53:23.578Z,54.20
2018-04-04T15:55:50.690Z,55.20
2018-04-04T15:58:16.970Z,55.00
2018-04-04T16:00:43.221Z,56.30
2018-04-04T16:03:09.590Z,63.10
2018-04-04T16:05:35.768Z,73.10
2018-04-04T16:08:02.017Z,84.50
2018-04-04T16:10:29.072Z,93.30
2018-04-04T16:12:55.294Z,98.30
2018-04-04T16:15:21.544Z,99.90
2018-04-04T16:17:47.740Z,99.90
2018-04-04T16:20:13.969Z,99.90
2018-04-04T16:22:40.258Z,99.90
2018-04-04T16:25:14.138Z,99.90
2018-04-04T16:27:40.463Z,99.90
2018-04-04T16:30:06.821Z,99.90
2018-04-04T16:32:33.797Z,99.90
2018-04-04T16:35:00.106Z,99.90
2018-04-04T16:37:27.049Z,99.90
2018-04-04T16:39:54.200Z,99.90
2018-04-04T16:42:20.442Z,99.90
2018-04-04T16:44:46.675Z,99.90
2018-04-04T16:47:12.910Z,99.90
2018-04-04T16:49:39.218Z,99.90
2018-04-04T16:52:05.522Z,99.90
2018-04-04T16:54:32.586Z,99.90
2018-04-04T16:56:59.632Z,99.90
2018-04-04T16:59:26.599Z,99.90
2018-04-04T17:01:52.858Z,99.90
2018-04-04T17:04:19.255Z,99.90
2018-04-04T17:06:45.470Z,99.90
2018-04-04T17:09:11.850Z,99.90
2018-04-04T17:11:38.125Z,99.90
2018-04-04T17:14:05.256Z,99.90
2018-04-04T17:16:32.012Z,99.90
2018-04-04T17:18:58.989Z,99.90
2018-04-04T17:21:25.284Z,99.90
2018-04-04T17:23:52.395Z,99.90
2018-04-04T17:26:18.644Z,99.90
2018-04-04T17:28:44.978Z,99.90
2018-04-04T17:31:11.426Z,99.90
2018-04-04T17:33:38.467Z,99.90
2018-04-04T17:36:11.651Z,99.90
2018-04-04T17:38:38.633Z,99.90
2018-04-04T17:41:04.840Z,99.90
2018-04-04T17:43:31.095Z,99.90
2018-04-04T17:45:57.381Z,99.90
2018-04-04T17:48:23.783Z,99.90
2018-04-04T17:50:50.130Z,99.90
2018-04-04T17:53:16.472Z,99.90
2018-04-04T17:55:43.535Z,99.90
2018-04-04T17:58:09.879Z,99.90
2018-04-04T18:00:36.667Z,99.90
2018-04-04T18:03:02.914Z,99.90
2018-04-04T18:05:29.209Z,99.90
2018-04-04T18:07:55.427Z,99.90
2018-04-04T18:10:21.683Z,99.90
2018-04-04T18:12:47.936Z,99.90
2018-04-04T18:15:15.215Z,99.90
2018-04-04T18:17:42.125Z,99.90
2018-04-04T18:20:09.253Z,99.90
2018-04-04T18:22:36.448Z,99.90
2018-04-04T18:25:03.169Z,99.90
2018-04-04T18:27:29.456Z,99.90
2018-04-04T18:29:55.840Z,99.90
2018-04-04T18:32:22.088Z,99.90
2018-04-04T18:34:48.517Z,99.90
2018-04-04T18:37:14.874Z,99.90
2018-04-04T18:39:41.224Z,99.90
2018-04-04T18:42:07.509Z,99.90
2018-04-04T18:44:33.839Z,99.90
2018-04-04T18:47:00.081Z,99.90
2018-04-04T18:49:26.454Z,99.90
2018-04-04T18:51:53.649Z,99.90
2018-04-04T18:54:19.904Z,99.90
2018-04-04T18:56:46.190Z,99.90
2018-04-04T18:59:12.554Z,99.90
2018-04-04T19:01:38.889Z,99.90
2018-04-04T19:04:05.278Z,99.90
2018-04-04T19:06:31.508Z,99.90
2018-04-04T19:08:57.779Z,99.90
2018-04-04T19:11:24.047Z,99.90
2018-04-04T19:13:51.145Z,99.90
2018-04-04T19:16:17.418Z,99.90
2018-04-04T19:18:45.688Z,99.90
2018-04-04T19:21:12.906Z,99.90
2018-04-04T19:23:40.264Z,99.90
2018-04-04T19:26:06.789Z,99.90
2018-04-04T19:28:33.034Z,99.90
2018-04-04T19:30:59.956Z,99.90
2018-04-04T19:33:26.248Z,99.90
2018-04-04T19:35:52.496Z,99.90
2018-04-04T19:38:19.602Z,99.90
2018-04-04T19:40:46.799Z,99.90
2018-04-04T19:43:14.058Z,99.90
2018-04-04T19:45:40.382Z,99.90
2018-04-04T19:48:06.679Z,99.90
2018-04-04T19:50:32.895Z,99.90
2018-04-04T19:53:00.006Z,99.90
2018-04-04T19:55:27.102Z,99.90
2018-04-04T19:57:54.034Z,99.90
2018-04-04T20:00:21.126Z,99.90
2018-04-04T20:02:47.464Z,99.90
2018-04-04T20:05:13.763Z,99.90
2018-04-04T20:07:40.008Z,99.90
2018-04-04T20:10:06.304Z,99.90
2018-04-04T20:12:33.303Z,99.90
2018-04-04T20:15:00.111Z,99.90
2018-04-04T20:17:26.344Z,99.90
2018-04-04T20:19:52.696Z,99.90
2018-04-04T20:22:18.879Z,99.90
2018-04-04T20:24:45.077Z,99.90
2018-04-04T20:27:12.343Z,99.90
2018-04-04T20:29:39.351Z,99.90
2018-04-04T20:32:05.673Z,99.90
2018-04-04T20:34:32.830Z,99.90
2018-04-04T20:37:00.538Z,99.90
2018-04-04T20:39:27.643Z,99.90
2018-04-04T20:41:54.051Z,99.90
2018-04-04T20:44:20.218Z,99.90
2018-04-04T20:46:46.513Z,99.90
2018-04-04T20:49:12.827Z,99.90
2018-04-04T20:51:39.101Z,99.90
2018-04-04T20:54:05.567Z,99.90
2018-04-04T20:56:31.896Z,99.90
2018-04-04T20:58:58.140Z,99.90
2018-04-04T21:01:25.167Z,99.90
2018-04-04T21:03:51.350Z,99.90
2018-04-04T21:06:17.578Z,99.90
2018-04-04T21:08:44.653Z,99.90
2018-04-04T21:11:11.749Z,99.90
2018-04-04T21:13:38.023Z,99.90
2018-04-04T21:16:05.349Z,99.90
2018-04-04T21:18:32.089Z,99.90
2018-04-04T21:20:58.503Z,99.90
2018-04-04T21:23:24.710Z,99.90
2018-04-04T21:25:52.195Z,99.90
2018-04-04T21:28:19.382Z,99.90
2018-04-04T21:30:46.491Z,99.90
2018-04-04T21:33:12.709Z,99.90
2018-04-04T21:35:38.981Z,99.90
2018-04-04T21:38:05.332Z,99.90
2018-04-04T21:40:31.689Z,99.90
2018-04-04T21:42:57.922Z,99.90
2018-04-04T21:45:24.194Z,99.90
2018-04-04T21:47:51.162Z,99.90
2018-04-04T21:50:18.199Z,99.90
2018-04-04T21:52:45.218Z,99.90
2018-04-04T21:55:11.447Z,99.90
2018-04-04T21:57:37.695Z,99.90
2018-04-04T22:00:05.750Z,99.90
2018-04-04T22:02:32.047Z,99.90
2018-04-04T22:04:58.339Z,99.90
2018-04-04T22:07:24.690Z,99.90
2018-04-04T22:09:50.952Z,99.90
2018-04-04T22:12:17.171Z,99.90
2018-04-04T22:14:43.731Z,99.90
2018-04-04T22:17:09.954Z,99.90
2018-04-04T22:19:36.220Z,99.90
2018-04-04T22:22:02.581Z,99.90
2018-04-04T22:24:28.867Z,99.90
2018-04-04T22:26:55.935Z,99.90
2018-04-04T22:29:22.368Z,99.90
2018-04-04T22:31:48.584Z,99.90
2018-04-04T22:34:15.187Z,99.90
2018-04-04T22:36:41.486Z,99.90
2018-04-04T22:39:07.706Z,99.90
2018-04-04T22:41:34.361Z,99.90
2018-04-04T22:44:00.699Z,99.90
2018-04-04T22:46:26.935Z,99.90
2018-04-04T22:48:53.287Z,99.90
2018-04-04T22:51:20.364Z,99.90
2018-04-04T22:53:46.601Z,99.90
2018-04-04T22:56:12.865Z,99.90
2018-04-04T22:58:39.144Z,99.90
2018-04-04T23:01:05.428Z,99.90
2018-04-04T23:03:32.012Z,99.90
2018-04-04T23:05:59.180Z,99.90
2018-04-04T23:08:25.603Z,99.90
2018-04-04T23:10:51.835Z,99.90
2018-04-04T23:13:18.136Z,99.90
2018-04-04T23:15:44.356Z,99.90
2018-04-04T23:18:10.515Z,99.90
2018-04-04T23:20:36.844Z,99.90
2018-04-04T23:23:03.140Z,99.90
2018-04-04T23:25:29.451Z,99.90
2018-04-04T23:27:56.470Z,99.90
2018-04-04T23:30:22.813Z,99.90
2018-04-04T23:32:49.035Z,99.90
2018-04-04T23:35:16.732Z,99.90
2018-04-04T23:37:43.020Z,99.90
2018-04-04T23:40:09.308Z,99.90
2018-04-04T23:42:35.599Z,99.90
2018-04-04T23:45:02.638Z,99.90
2018-04-04T23:47:29.675Z,99.90
2018-04-04T23:49:55.954Z,99.90
2018-04-04T23:52:22.186Z,99.90
2018-04-04T23:54:48.427Z,99.90
2018-04-04T23:57:14.700Z,99.90
2018-04-04T23:59:42.219Z,99.90
